createdAt,value
2022-09-03T00:00:00.000Z,79.9
2022-09-03T00:15:00.000Z,80.99
2022-09-03T00:30:00.000Z,81.61
2022-09-03T00:45:00.000Z,81.5
2022-09-03T01:00:00.000Z,82
2022-09-03T01:15:00.000Z,82.67
2022-09-03T01:30:00.000Z,82.41
2022-09-03T01:45:00.000Z,81.71
2022-09-03T02:00:00.000Z,81.07
2022-09-03T02:15:00.000Z,81.08
2022-09-03T02:30:00.000Z,81.83
2022-09-03T02:45:00.000Z,81.51
2022-09-03T03:00:00.000Z,81.36
2022-09-03T03:15:00.000Z,81.6
2022-09-03T03:30:00.000Z,81.78
2022-09-03T03:45:00.000Z,81.66
2022-09-03T04:00:00.000Z,81.75
2022-09-03T04:15:00.000Z,82.35
2022-09-03T04:30:00.000Z,81.94
2022-09-03T04:45:00.000Z,80.48
2022-09-03T05:00:00.000Z,80.28
2022-09-03T05:15:00.000Z,79.61
2022-09-03T05:30:00.000Z,79.11
2022-09-03T05:45:00.000Z,79.67
2022-09-03T06:00:00.000Z,76.91
2022-09-03T06:15:00.000Z,74.96
2022-09-03T06:30:00.000Z,75.43
2022-09-03T06:45:00.000Z,74.2
2022-09-03T07:00:00.000Z,73.88
2022-09-03T07:15:00.000Z,69.8
2022-09-03T07:30:00.000Z,57.37
2022-09-03T07:45:00.000Z,55.51
2022-09-03T08:00:00.000Z,53.03
2022-09-03T08:15:00.000Z,49.26
2022-09-03T08:30:00.000Z,47.27
2022-09-03T08:45:00.000Z,45.69
2022-09-03T09:00:00.000Z,45.88
2022-09-03T09:15:00.000Z,46.99
2022-09-03T09:30:00.000Z,46.73
2022-09-03T09:45:00.000Z,45.39
2022-09-03T10:00:00.000Z,44.63
2022-09-03T10:15:00.000Z,45.26
2022-09-03T10:30:00.000Z,45.16
2022-09-03T10:45:00.000Z,46.9
2022-09-03T11:00:00.000Z,46.37
2022-09-03T11:15:00.000Z,47.62
2022-09-03T11:30:00.000Z,48.63
2022-09-03T11:45:00.000Z,48.65
2022-09-03T12:00:00.000Z,49.89
2022-09-03T12:15:00.000Z,49.49
2022-09-03T12:30:00.000Z,50.91
2022-09-03T12:45:00.000Z,50.76
2022-09-03T13:00:00.000Z,50.71
2022-09-03T13:15:00.000Z,51.5
2022-09-03T13:30:00.000Z,52.77
2022-09-03T13:45:00.000Z,53.71
2022-09-03T14:00:00.000Z,53.54
2022-09-03T14:15:00.000Z,52.75
2022-09-03T14:30:00.000Z,54
2022-09-03T14:45:00.000Z,56.4
2022-09-03T15:00:00.000Z,57.45
2022-09-03T15:15:00.000Z,57.38
2022-09-03T15:30:00.000Z,55.97
2022-09-03T15:45:00.000Z,56.16
2022-09-03T16:00:00.000Z,57.51
2022-09-03T16:15:00.000Z,60.09
2022-09-03T16:30:00.000Z,59.62
2022-09-03T16:45:00.000Z,66.03
2022-09-03T17:00:00.000Z,77.15
2022-09-03T17:15:00.000Z,80.05
2022-09-03T17:30:00.000Z,80.89
2022-09-03T17:45:00.000Z,83.14
2022-09-03T18:00:00.000Z,84.98
2022-09-03T18:15:00.000Z,84.69
2022-09-03T18:30:00.000Z,84.91
2022-09-03T18:45:00.000Z,85.09
2022-09-03T19:00:00.000Z,85.15
2022-09-03T19:15:00.000Z,85.39
2022-09-03T19:30:00.000Z,85.35
2022-09-03T19:45:00.000Z,85.49
2022-09-03T20:00:00.000Z,85.57
2022-09-03T20:15:00.000Z,85.97
2022-09-03T20:30:00.000Z,85.6
2022-09-03T20:45:00.000Z,84.8
2022-09-03T21:00:00.000Z,84.09
2022-09-03T21:15:00.000Z,84.3
2022-09-03T21:30:00.000Z,84.83
2022-09-03T21:45:00.000Z,84.78
2022-09-03T22:00:00.000Z,84.85
2022-09-03T22:15:00.000Z,84.18
2022-09-03T22:30:00.000Z,83.74
2022-09-03T22:45:00.000Z,84.02
2022-09-03T23:00:00.000Z,83.88
2022-09-03T23:15:00.000Z,83.45
2022-09-03T23:30:00.000Z,83.81
2022-09-03T23:45:00.000Z,84.21
